MSC Mandraki — SZUH — position and weather

sailwx.info

Track history (hours):
 
Tides and Currents Weather Stations Pressure Air Temp Water Temp Dewpoint Dewpoint Depression Visibility Wind Speed Wind Dir Waves Ship Positions

MSC Mandraki

Last reported at 2015-Mar-03 10:33 UTC. Time now 2015-Mar-03 18:52 UTC.
Position S 30°10' E 031°02'.

Length 294 m; draft 10.4 m.

Type: Ship. MMSI: 240265000.

Date/timePositionNaut miles runAvg speedWind from/ knotsBaromVisibWave heightAir tempDewpointWater temp
2015-Mar-03 10:33S 30°10' E 031°02'1515.1
2015-Mar-03 09:33S 29°56' E 031°09'7 7.5
2015-Mar-03 08:33S 29°52' E 031°02'1 0.6
2015-Mar-03 07:30S 29°53' E 031°01'0 0.0
2015-Mar-03 06:30S 29°53' E 031°01'0 0.0
2015-Mar-03 05:30S 29°53' E 031°01'0 0.0
2015-Mar-03 04:12S 29°53' E 031°01'0 0.0
2015-Mar-03 03:30S 29°53' E 031°01'0 0.0
2015-Mar-03 02:24S 29°53' E 031°01'0 0.0
2015-Mar-03 00:30S 29°53' E 031°01'0 0.0
2015-Mar-02 23:18S 29°53' E 031°01'0 0.0
2015-Mar-02 21:30S 29°53' E 031°01'0 0.0
2015-Mar-02 19:30S 29°53' E 031°01'0 0.0
2015-Mar-02 18:30S 29°53' E 031°01'0 0.0
2015-Mar-02 17:24S 29°53' E 031°01'0 0.0
2015-Mar-02 16:06S 29°53' E 031°01'0 0.0
2015-Mar-02 15:24S 29°53' E 031°01'0 0.0
2015-Mar-02 14:18S 29°53' E 031°01'0 0.0
2015-Mar-02 12:30S 29°53' E 031°01'0 0.0
2015-Mar-02 11:18S 29°53' E 031°01'0 0.0
2015-Mar-02 09:24S 29°53' E 031°01'0 0.0
2015-Mar-02 06:12S 29°53' E 031°01'0 0.0
2015-Mar-02 01:30S 29°53' E 031°01'0 0.0
2015-Mar-02 00:30S 29°53' E 031°01'0 0.0
2015-Mar-01 22:18S 29°53' E 031°01'0 0.0
2015-Mar-01 21:24S 29°53' E 031°01'0 0.0
2015-Mar-01 19:24S 29°53' E 031°01'0 0.0
2015-Mar-01 15:12S 29°53' E 031°01'0 0.0
2015-Mar-01 14:30S 29°53' E 031°01'0 0.0
2015-Mar-01 13:24S 29°53' E 031°01'0 0.0
2015-Mar-01 12:30S 29°53' E 031°01'0 0.0
2015-Mar-01 11:30S 29°53' E 031°01'1 0.6
2015-Mar-01 09:33S 29°53' E 031°03'5 5.2
2015-Mar-01 08:33S 29°49' E 031°07'5 4.8
2015-Mar-01 07:33S 29°46' E 031°11'3 3.0
2015-Mar-01 06:29S 29°43' E 031°12'0 0.0
2015-Mar-01 05:29S 29°43' E 031°12'0 0.0
2015-Mar-01 04:29S 29°43' E 031°12'0 0.0
2015-Mar-01 03:17S 29°43' E 031°12'0 0.0
2015-Mar-01 02:29S 29°43' E 031°12'0 0.0
2015-Mar-01 01:17S 29°43' E 031°12'0 0.0
2015-Mar-01 00:23S 29°43' E 031°12'0 0.0
2015-Feb-28 23:23S 29°43' E 031°12'0 0.1
2015-Feb-28 22:29S 29°43' E 031°12'0 0.0
2015-Feb-28 21:29S 29°43' E 031°12'0 0.0
2015-Feb-28 20:29S 29°43' E 031°12'0 0.0
2015-Feb-28 19:29S 29°43' E 031°12'0 0.0
2015-Feb-28 18:17S 29°43' E 031°12'0 0.0
2015-Feb-28 17:23S 29°43' E 031°12'0 0.0
2015-Feb-28 16:29S 29°43' E 031°12'0 0.0
2015-Feb-28 15:17S 29°43' E 031°12'0 0.0
2015-Feb-28 14:29S 29°43' E 031°12'0 0.0
2015-Feb-28 13:17S 29°43' E 031°12'0 0.0
2015-Feb-28 12:17S 29°43' E 031°12'0 0.0
2015-Feb-28 11:17S 29°43' E 031°12'0 0.0
2015-Feb-28 10:29S 29°43' E 031°12'0 0.0
2015-Feb-28 09:23S 29°43' E 031°12'0 0.0
2015-Feb-28 08:29S 29°43' E 031°12'0 0.0
2015-Feb-28 06:29S 29°43' E 031°12'0 0.0
2015-Feb-28 05:29S 29°43' E 031°12'0 0.0
2015-Feb-28 04:17S 29°43' E 031°12'0 0.1
2015-Feb-28 03:29S 29°43' E 031°12'0 0.0
2015-Feb-28 02:29S 29°43' E 031°12'0 0.0
2015-Feb-28 01:29S 29°43' E 031°12'0 0.0
2015-Feb-28 00:29S 29°43' E 031°13'0 0.0
2015-Feb-27 23:29S 29°43' E 031°13'0 0.0
2015-Feb-27 22:29S 29°43' E 031°13'0 0.0
2015-Feb-27 21:29S 29°43' E 031°12'0 0.0
2015-Feb-27 20:23S 29°43' E 031°12'0 0.0
2015-Feb-27 19:17S 29°43' E 031°13'0 0.0
2015-Feb-27 18:29S 29°43' E 031°12'0 0.0
2015-Feb-27 17:17S 29°43' E 031°12'0 0.0
2015-Feb-27 16:11S 29°43' E 031°12'0 0.0
2015-Feb-27 15:29S 29°43' E 031°12'0 0.0
2015-Feb-27 14:29S 29°43' E 031°12'0 0.0
2015-Feb-27 13:11S 29°43' E 031°12'0 0.0
2015-Feb-27 12:23S 29°43' E 031°12'0 0.0
2015-Feb-27 11:23S 29°43' E 031°12'0 0.0
2015-Feb-27 10:29S 29°43' E 031°12'0 0.1
2015-Feb-27 09:29S 29°43' E 031°12'0 0.0
2015-Feb-27 08:29S 29°43' E 031°12'0 0.1
2015-Feb-27 07:29S 29°43' E 031°12'0 0.1
2015-Feb-27 06:23S 29°43' E 031°12'0 0.1
2015-Feb-27 05:29S 29°43' E 031°12'0 0.1
2015-Feb-27 04:29S 29°43' E 031°12'0 0.2
2015-Feb-27 03:29S 29°43' E 031°12'0 0.2
2015-Feb-27 02:29S 29°43' E 031°12'0 0.0
2015-Feb-27 01:29S 29°43' E 031°12'0 0.0
2015-Feb-27 00:29S 29°43' E 031°12'0 0.0
2015-Feb-26 23:29S 29°43' E 031°12'0 0.0
2015-Feb-26 22:29S 29°43' E 031°12'0 0.0
2015-Feb-26 21:29S 29°43' E 031°12'0 0.0
2015-Feb-26 20:29S 29°43' E 031°12'0 0.0
2015-Feb-26 19:29S 29°43' E 031°12'0 0.0
2015-Feb-26 18:29S 29°43' E 031°12'0 0.0
2015-Feb-26 17:29S 29°43' E 031°12'0 0.0
2015-Feb-26 11:29S 29°43' E 031°12'0 0.1
2015-Feb-26 10:29S 29°43' E 031°12'0 0.0
2015-Feb-26 09:33S 29°43' E 031°12'0 0.0
2015-Feb-26 08:33S 29°43' E 031°12'0 0.0
2015-Feb-26 07:33S 29°43' E 031°12'8 7.6
2015-Feb-26 06:33S 29°44' E 031°21'1515.1
2015-Feb-26 05:33S 29°41' E 031°38'1716.4
2015-Feb-26 04:33S 29°36' E 031°56'  
2015-Feb-21 19:10S 20°10' E 057°24'5 9.0
2015-Feb-21 18:33S 20°08' E 057°29'0 0.1
2015-Feb-21 17:33S 20°09' E 057°29'0 0.0
2015-Feb-21 16:33S 20°09' E 057°29'0 0.0
2015-Feb-21 15:33S 20°09' E 057°29'0 0.0
2015-Feb-21 14:28S 20°09' E 057°29'0 0.0
2015-Feb-21 13:33S 20°09' E 057°29'0 0.0
2015-Feb-21 12:33S 20°09' E 057°29'0 0.0
2015-Feb-21 11:33S 20°09' E 057°29'  
Track history (hours):
 
Tides and Currents Weather Stations Pressure Air Temp Water Temp Dewpoint Dewpoint Depression Visibility Wind Speed Wind Dir Waves Ship Positions

MSC Mandraki

Last reported at 2015-Mar-03 10:33 UTC. Time now 2015-Mar-03 18:52 UTC.
Position S 30°10' E 031°02'.

Length 294 m; draft 10.4 m.

Type: Ship. MMSI: 240265000.

Date/timePositionNaut miles runAvg speedWind from/ knotsBaromVisibWave heightAir tempDewpointWater temp
2015-Mar-03 10:33S 30°10' E 031°02'1515.1
2015-Mar-03 09:33S 29°56' E 031°09'7 7.5
2015-Mar-03 08:33S 29°52' E 031°02'1 0.6
2015-Mar-03 07:30S 29°53' E 031°01'0 0.0
2015-Mar-03 06:30S 29°53' E 031°01'0 0.0
2015-Mar-03 05:30S 29°53' E 031°01'0 0.0
2015-Mar-03 04:12S 29°53' E 031°01'0 0.0
2015-Mar-03 03:30S 29°53' E 031°01'0 0.0
2015-Mar-03 02:24S 29°53' E 031°01'0 0.0
2015-Mar-03 00:30S 29°53' E 031°01'0 0.0
2015-Mar-02 23:18S 29°53' E 031°01'0 0.0
2015-Mar-02 21:30S 29°53' E 031°01'0 0.0
2015-Mar-02 19:30S 29°53' E 031°01'0 0.0
2015-Mar-02 18:30S 29°53' E 031°01'0 0.0
2015-Mar-02 17:24S 29°53' E 031°01'0 0.0
2015-Mar-02 16:06S 29°53' E 031°01'0 0.0
2015-Mar-02 15:24S 29°53' E 031°01'0 0.0
2015-Mar-02 14:18S 29°53' E 031°01'0 0.0
2015-Mar-02 12:30S 29°53' E 031°01'0 0.0
2015-Mar-02 11:18S 29°53' E 031°01'0 0.0
2015-Mar-02 09:24S 29°53' E 031°01'0 0.0
2015-Mar-02 06:12S 29°53' E 031°01'0 0.0
2015-Mar-02 01:30S 29°53' E 031°01'0 0.0
2015-Mar-02 00:30S 29°53' E 031°01'0 0.0
2015-Mar-01 22:18S 29°53' E 031°01'0 0.0
2015-Mar-01 21:24S 29°53' E 031°01'0 0.0
2015-Mar-01 19:24S 29°53' E 031°01'0 0.0
2015-Mar-01 15:12S 29°53' E 031°01'0 0.0
2015-Mar-01 14:30S 29°53' E 031°01'0 0.0
2015-Mar-01 13:24S 29°53' E 031°01'0 0.0
2015-Mar-01 12:30S 29°53' E 031°01'0 0.0
2015-Mar-01 11:30S 29°53' E 031°01'1 0.6
2015-Mar-01 09:33S 29°53' E 031°03'5 5.2
2015-Mar-01 08:33S 29°49' E 031°07'5 4.8
2015-Mar-01 07:33S 29°46' E 031°11'3 3.0
2015-Mar-01 06:29S 29°43' E 031°12'0 0.0
2015-Mar-01 05:29S 29°43' E 031°12'0 0.0
2015-Mar-01 04:29S 29°43' E 031°12'0 0.0
2015-Mar-01 03:17S 29°43' E 031°12'0 0.0
2015-Mar-01 02:29S 29°43' E 031°12'0 0.0
2015-Mar-01 01:17S 29°43' E 031°12'0 0.0
2015-Mar-01 00:23S 29°43' E 031°12'0 0.0
2015-Feb-28 23:23S 29°43' E 031°12'0 0.1
2015-Feb-28 22:29S 29°43' E 031°12'0 0.0
2015-Feb-28 21:29S 29°43' E 031°12'0 0.0
2015-Feb-28 20:29S 29°43' E 031°12'0 0.0
2015-Feb-28 19:29S 29°43' E 031°12'0 0.0
2015-Feb-28 18:17S 29°43' E 031°12'0 0.0
2015-Feb-28 17:23S 29°43' E 031°12'0 0.0
2015-Feb-28 16:29S 29°43' E 031°12'0 0.0
2015-Feb-28 15:17S 29°43' E 031°12'0 0.0
2015-Feb-28 14:29S 29°43' E 031°12'0 0.0
2015-Feb-28 13:17S 29°43' E 031°12'0 0.0
2015-Feb-28 12:17S 29°43' E 031°12'0 0.0
2015-Feb-28 11:17S 29°43' E 031°12'0 0.0
2015-Feb-28 10:29S 29°43' E 031°12'0 0.0
2015-Feb-28 09:23S 29°43' E 031°12'0 0.0
2015-Feb-28 08:29S 29°43' E 031°12'0 0.0
2015-Feb-28 06:29S 29°43' E 031°12'0 0.0
2015-Feb-28 05:29S 29°43' E 031°12'0 0.0
2015-Feb-28 04:17S 29°43' E 031°12'0 0.1
2015-Feb-28 03:29S 29°43' E 031°12'0 0.0
2015-Feb-28 02:29S 29°43' E 031°12'0 0.0
2015-Feb-28 01:29S 29°43' E 031°12'0 0.0
2015-Feb-28 00:29S 29°43' E 031°13'0 0.0
2015-Feb-27 23:29S 29°43' E 031°13'0 0.0
2015-Feb-27 22:29S 29°43' E 031°13'0 0.0
2015-Feb-27 21:29S 29°43' E 031°12'0 0.0
2015-Feb-27 20:23S 29°43' E 031°12'0 0.0
2015-Feb-27 19:17S 29°43' E 031°13'0 0.0
2015-Feb-27 18:29S 29°43' E 031°12'0 0.0
2015-Feb-27 17:17S 29°43' E 031°12'0 0.0
2015-Feb-27 16:11S 29°43' E 031°12'0 0.0
2015-Feb-27 15:29S 29°43' E 031°12'0 0.0
2015-Feb-27 14:29S 29°43' E 031°12'0 0.0
2015-Feb-27 13:11S 29°43' E 031°12'0 0.0
2015-Feb-27 12:23S 29°43' E 031°12'0 0.0
2015-Feb-27 11:23S 29°43' E 031°12'0 0.0
2015-Feb-27 10:29S 29°43' E 031°12'0 0.1
2015-Feb-27 09:29S 29°43' E 031°12'0 0.0
2015-Feb-27 08:29S 29°43' E 031°12'0 0.1
2015-Feb-27 07:29S 29°43' E 031°12'0 0.1
2015-Feb-27 06:23S 29°43' E 031°12'0 0.1
2015-Feb-27 05:29S 29°43' E 031°12'0 0.1
2015-Feb-27 04:29S 29°43' E 031°12'0 0.2
2015-Feb-27 03:29S 29°43' E 031°12'0 0.2
2015-Feb-27 02:29S 29°43' E 031°12'0 0.0
2015-Feb-27 01:29S 29°43' E 031°12'0 0.0
2015-Feb-27 00:29S 29°43' E 031°12'0 0.0
2015-Feb-26 23:29S 29°43' E 031°12'0 0.0
2015-Feb-26 22:29S 29°43' E 031°12'0 0.0
2015-Feb-26 21:29S 29°43' E 031°12'0 0.0
2015-Feb-26 20:29S 29°43' E 031°12'0 0.0
2015-Feb-26 19:29S 29°43' E 031°12'0 0.0
2015-Feb-26 18:29S 29°43' E 031°12'0 0.0
2015-Feb-26 17:29S 29°43' E 031°12'0 0.0
2015-Feb-26 11:29S 29°43' E 031°12'0 0.1
2015-Feb-26 10:29S 29°43' E 031°12'0 0.0
2015-Feb-26 09:33S 29°43' E 031°12'0 0.0
2015-Feb-26 08:33S 29°43' E 031°12'0 0.0
2015-Feb-26 07:33S 29°43' E 031°12'8 7.6
2015-Feb-26 06:33S 29°44' E 031°21'1515.1
2015-Feb-26 05:33S 29°41' E 031°38'1716.4
2015-Feb-26 04:33S 29°36' E 031°56'  
2015-Feb-21 19:10S 20°10' E 057°24'5 9.0
2015-Feb-21 18:33S 20°08' E 057°29'0 0.1
2015-Feb-21 17:33S 20°09' E 057°29'0 0.0
2015-Feb-21 16:33S 20°09' E 057°29'0 0.0
2015-Feb-21 15:33S 20°09' E 057°29'0 0.0
2015-Feb-21 14:28S 20°09' E 057°29'0 0.0
2015-Feb-21 13:33S 20°09' E 057°29'0 0.0
2015-Feb-21 12:33S 20°09' E 057°29'0 0.0
2015-Feb-21 11:33S 20°09' E 057°29'  

Dump ship's entire track history